createdAt,value
2022-09-25T00:01:33.683Z,10.30
2022-09-25T00:04:03.242Z,10.60
2022-09-25T00:06:32.953Z,10.50
2022-09-25T00:09:01.743Z,9.60
2022-09-25T00:11:33.370Z,10.70
2022-09-25T00:14:03.279Z,10.20
2022-09-25T00:16:32.928Z,10.50
2022-09-25T00:19:19.994Z,10.50
2022-09-25T00:21:52.794Z,10.80
2022-09-25T00:24:21.652Z,11.50
2022-09-25T00:26:50.570Z,11.30
2022-09-25T00:29:20.322Z,11.00
2022-09-25T00:31:48.850Z,10.90
2022-09-25T00:34:17.371Z,10.30
2022-09-25T00:36:46.072Z,11.20
2022-09-25T00:39:14.747Z,11.30
2022-09-25T00:41:43.212Z,10.50
2022-09-25T00:44:44.050Z,11.50
2022-09-25T00:47:16.063Z,10.90
2022-09-25T00:49:45.445Z,11.00
2022-09-25T00:52:14.199Z,10.80
2022-09-25T00:54:48.165Z,11.50
2022-09-25T00:57:20.463Z,11.50
2022-09-25T00:59:54.135Z,11.10
2022-09-25T01:02:26.967Z,10.40
2022-09-25T01:05:00.003Z,11.00
2022-09-25T01:07:28.932Z,10.70
2022-09-25T01:09:58.719Z,10.80
2022-09-25T01:12:27.455Z,10.90
2022-09-25T01:14:56.754Z,10.70
2022-09-25T01:17:32.584Z,11.30
2022-09-25T01:20:15.891Z,11.10
2022-09-25T01:22:58.473Z,11.90
2022-09-25T01:25:41.996Z,11.50
2022-09-25T01:28:25.426Z,12.20
2022-09-25T01:31:03.051Z,11.20
2022-09-25T01:33:35.037Z,11.60
2022-09-25T01:36:11.250Z,11.30
2022-09-25T01:38:44.759Z,11.80
2022-09-25T01:41:18.266Z,11.90
2022-09-25T01:43:52.241Z,12.10
2022-09-25T01:46:24.454Z,11.40
2022-09-25T01:48:59.873Z,12.00
2022-09-25T01:51:31.312Z,11.50
2022-09-25T01:54:05.360Z,11.70
2022-09-25T01:56:40.079Z,12.20
2022-09-25T01:59:16.928Z,11.70
2022-09-25T02:01:47.042Z,12.10
2022-09-25T02:04:21.211Z,12.00
2022-09-25T02:06:53.037Z,11.20
2022-09-25T02:09:26.873Z,12.30
2022-09-25T02:11:59.711Z,11.40
2022-09-25T02:14:33.821Z,12.10
2022-09-25T02:17:05.222Z,11.70
2022-09-25T02:19:53.674Z,12.00
2022-09-25T02:22:26.071Z,12.40
2022-09-25T02:25:00.363Z,12.30
2022-09-25T02:27:29.267Z,12.60
2022-09-25T02:29:58.330Z,12.90
2022-09-25T02:32:31.361Z,12.60
2022-09-25T02:35:00.822Z,12.60
2022-09-25T02:37:30.476Z,13.00
2022-09-25T02:40:01.599Z,12.70
2022-09-25T02:42:39.367Z,12.60
2022-09-25T02:45:14.449Z,12.70
2022-09-25T02:47:54.122Z,12.70
2022-09-25T02:50:25.949Z,12.60
2022-09-25T02:53:03.526Z,12.70
2022-09-25T02:55:37.439Z,12.70
2022-09-25T02:58:12.769Z,12.40
2022-09-25T03:00:43.983Z,13.50
2022-09-25T03:03:16.465Z,13.10
2022-09-25T03:05:46.561Z,13.20
2022-09-25T03:08:33.830Z,13.40
2022-09-25T03:11:04.877Z,13.70
2022-09-25T03:13:34.294Z,13.10
2022-09-25T03:16:07.621Z,13.50
2022-09-25T03:18:37.463Z,13.00
2022-09-25T03:21:06.336Z,13.70
2022-09-25T03:23:34.934Z,13.40
2022-09-25T03:26:04.656Z,13.60
2022-09-25T03:28:36.359Z,14.40
2022-09-25T03:31:08.037Z,13.20
2022-09-25T03:33:38.359Z,13.60
2022-09-25T03:36:10.585Z,13.60
2022-09-25T03:38:40.608Z,12.70
2022-09-25T03:41:11.324Z,13.40
2022-09-25T03:43:42.839Z,14.00
2022-09-25T03:46:13.783Z,14.80
2022-09-25T03:48:42.440Z,14.50
2022-09-25T03:51:11.381Z,13.90
2022-09-25T03:53:40.737Z,14.00
2022-09-25T03:56:12.708Z,14.80
2022-09-25T03:58:41.575Z,13.20
2022-09-25T04:01:10.396Z,14.40
2022-09-25T04:03:39.466Z,14.00
2022-09-25T04:06:09.761Z,13.40
2022-09-25T04:08:38.403Z,14.20
2022-09-25T04:11:07.097Z,14.10
2022-09-25T04:13:36.898Z,13.80
2022-09-25T04:16:07.791Z,14.20
2022-09-25T04:18:36.443Z,14.40
2022-09-25T04:21:08.068Z,14.50
2022-09-25T04:23:37.615Z,14.70
2022-09-25T04:26:07.278Z,14.70
2022-09-25T04:28:35.937Z,14.60
2022-09-25T04:31:04.477Z,16.00
2022-09-25T04:33:48.660Z,14.50
2022-09-25T04:36:18.351Z,13.70
2022-09-25T04:38:47.738Z,13.90
2022-09-25T04:41:19.106Z,15.80
2022-09-25T04:43:48.215Z,14.60
2022-09-25T04:46:21.949Z,15.20
2022-09-25T04:48:51.200Z,14.50
2022-09-25T04:51:19.841Z,14.40
2022-09-25T04:53:48.609Z,15.70
2022-09-25T04:56:17.849Z,14.50
2022-09-25T04:58:48.661Z,15.00
2022-09-25T05:01:19.111Z,14.80
2022-09-25T05:03:50.042Z,15.80
2022-09-25T05:06:18.903Z,15.90
2022-09-25T05:08:49.173Z,16.40
2022-09-25T05:11:17.707Z,16.00
2022-09-25T05:13:50.773Z,16.60
2022-09-25T05:16:19.804Z,16.30
2022-09-25T05:18:48.354Z,15.70
2022-09-25T05:21:17.063Z,16.60
2022-09-25T05:23:45.544Z,17.00
2022-09-25T05:26:14.027Z,16.50
2022-09-25T05:28:42.455Z,17.70
2022-09-25T05:31:11.531Z,17.60
2022-09-25T05:33:40.475Z,18.40
2022-09-25T05:36:10.074Z,18.00
2022-09-25T05:38:41.950Z,18.10
2022-09-25T05:41:11.452Z,18.30
2022-09-25T05:43:42.338Z,18.00
2022-09-25T05:46:11.410Z,19.10
2022-09-25T05:48:40.400Z,20.20
2022-09-25T05:51:09.318Z,19.40
2022-09-25T05:53:37.915Z,18.90
2022-09-25T05:56:06.777Z,19.60
2022-09-25T05:58:36.203Z,19.30
2022-09-25T06:01:06.189Z,19.00
2022-09-25T06:03:35.616Z,20.20
2022-09-25T06:06:05.582Z,20.50
2022-09-25T06:08:34.957Z,21.20
2022-09-25T06:11:04.084Z,21.50
2022-09-25T06:13:36.162Z,20.80
2022-09-25T06:16:13.039Z,21.20
2022-09-25T06:18:41.572Z,21.50
2022-09-25T06:21:10.295Z,19.90
2022-09-25T06:23:38.877Z,22.20
2022-09-25T06:26:08.856Z,20.70
2022-09-25T06:28:40.039Z,21.40
2022-09-25T06:31:11.148Z,21.10
2022-09-25T06:33:39.791Z,20.90
2022-09-25T06:36:08.427Z,21.80
2022-09-25T06:38:37.131Z,21.80
2022-09-25T06:41:05.999Z,22.30
2022-09-25T06:43:35.180Z,23.40
2022-09-25T06:46:04.335Z,22.00
2022-09-25T06:48:33.093Z,23.30
2022-09-25T06:51:01.819Z,23.30
2022-09-25T06:53:30.721Z,22.30
2022-09-25T06:55:59.590Z,22.10
2022-09-25T06:58:30.064Z,22.40
2022-09-25T07:00:58.976Z,22.40
2022-09-25T07:03:46.641Z,25.10
2022-09-25T07:06:21.544Z,25.00
2022-09-25T07:08:51.533Z,23.60
2022-09-25T07:12:31.895Z,24.10
2022-09-25T07:14:47.833Z,23.40
2022-09-25T07:17:19.908Z,21.70
2022-09-25T07:20:29.953Z,26.60
2022-09-25T07:23:03.320Z,23.00
2022-09-25T07:25:31.930Z,24.20
2022-09-25T07:28:00.487Z,23.60
2022-09-25T07:30:31.931Z,26.30
2022-09-25T07:33:31.933Z,25.30
2022-09-25T07:36:09.201Z,23.00
2022-09-25T07:38:39.181Z,26.30
2022-09-25T07:41:12.429Z,27.50
2022-09-25T07:43:42.775Z,27.90
2022-09-25T07:46:12.479Z,25.80
2022-09-25T07:48:40.998Z,25.90
2022-09-25T07:51:11.743Z,25.20
2022-09-25T07:53:44.147Z,24.60
2022-09-25T07:56:12.868Z,24.60
2022-09-25T07:58:42.103Z,25.10
2022-09-25T08:01:12.907Z,25.70
2022-09-25T08:03:41.518Z,24.60
2022-09-25T08:06:13.656Z,24.80
2022-09-25T08:08:47.659Z,26.00
2022-09-25T08:11:17.660Z,25.70
2022-09-25T08:13:46.542Z,26.20
2022-09-25T08:16:18.047Z,25.40
2022-09-25T08:18:47.260Z,25.40
2022-09-25T08:21:18.946Z,25.00
2022-09-25T08:23:52.057Z,26.50
2022-09-25T08:26:22.449Z,24.90
2022-09-25T08:28:51.477Z,25.30
2022-09-25T08:31:21.084Z,26.30
2022-09-25T08:33:51.839Z,24.20
2022-09-25T08:36:21.170Z,24.60
2022-09-25T08:38:52.547Z,24.50
2022-09-25T08:41:25.587Z,25.70
2022-09-25T08:44:01.804Z,27.50
2022-09-25T08:46:58.246Z,25.20
2022-09-25T08:49:30.643Z,25.40
2022-09-25T08:52:03.011Z,25.00
2022-09-25T08:54:36.728Z,30.10
2022-09-25T08:57:16.453Z,25.10
2022-09-25T08:59:49.036Z,25.10
2022-09-25T09:02:20.577Z,24.90
2022-09-25T09:04:53.328Z,24.20
2022-09-25T09:07:27.690Z,24.80
2022-09-25T09:10:02.704Z,22.60
2022-09-25T09:12:38.431Z,23.70
2022-09-25T09:15:20.546Z,23.40
2022-09-25T09:17:49.022Z,24.10
2022-09-25T09:20:21.597Z,22.40
2022-09-25T09:22:52.600Z,27.50
2022-09-25T09:25:28.510Z,24.00
2022-09-25T09:28:20.247Z,24.00
2022-09-25T09:30:59.993Z,54.20
2022-09-25T09:33:41.061Z,27.00
2022-09-25T09:36:19.259Z,23.90
2022-09-25T09:38:57.187Z,20.90
2022-09-25T09:41:38.404Z,20.60
2022-09-25T09:44:24.061Z,18.90
2022-09-25T09:47:02.949Z,17.80
2022-09-25T09:49:37.467Z,16.80
2022-09-25T09:52:13.879Z,16.90
2022-09-25T09:54:47.906Z,17.40
2022-09-25T09:57:21.668Z,16.40
2022-09-25T09:59:58.379Z,15.90
2022-09-25T10:02:36.871Z,15.10
2022-09-25T10:05:15.355Z,14.60
2022-09-25T10:07:46.016Z,13.00
2022-09-25T10:10:16.244Z,14.20
2022-09-25T10:12:50.264Z,15.30
2022-09-25T10:15:26.954Z,16.00
2022-09-25T10:17:58.451Z,16.80
2022-09-25T10:20:35.322Z,15.60
2022-09-25T10:23:06.290Z,13.40
2022-09-25T10:25:39.649Z,14.90
2022-09-25T10:28:29.195Z,13.70
2022-09-25T10:30:59.379Z,14.20
2022-09-25T10:33:29.806Z,13.60
2022-09-25T10:35:59.053Z,55.50
2022-09-25T10:38:38.220Z,17.60
2022-09-25T10:41:11.493Z,20.50
2022-09-25T10:44:01.667Z,14.90
2022-09-25T10:46:52.483Z,17.40
2022-09-25T10:49:41.565Z,16.20
2022-09-25T10:52:11.991Z,13.40
2022-09-25T10:54:45.207Z,12.90
2022-09-25T10:57:33.486Z,12.20
2022-09-25T11:00:05.640Z,11.80
2022-09-25T11:02:38.434Z,11.20
2022-09-25T11:05:18.028Z,11.50
2022-09-25T11:07:51.683Z,11.80
2022-09-25T11:10:22.874Z,12.60
2022-09-25T11:12:52.390Z,12.10
2022-09-25T11:15:23.206Z,11.90
2022-09-25T11:17:53.644Z,11.90
2022-09-25T11:20:28.988Z,12.00
2022-09-25T11:23:15.763Z,11.30
2022-09-25T11:25:53.097Z,11.90
2022-09-25T11:28:30.340Z,12.70
2022-09-25T11:31:02.931Z,12.10
2022-09-25T11:33:42.331Z,11.90
2022-09-25T11:36:17.700Z,12.20
2022-09-25T11:39:08.328Z,12.00
2022-09-25T11:41:43.150Z,11.50
2022-09-25T11:44:26.120Z,12.70
2022-09-25T11:47:05.004Z,10.40
2022-09-25T11:49:35.833Z,10.40
2022-09-25T11:52:36.539Z,10.70
2022-09-25T11:55:43.671Z,13.90
2022-09-25T11:58:37.154Z,13.80
2022-09-25T12:01:14.753Z,19.80
2022-09-25T12:03:58.013Z,18.80
2022-09-25T12:06:46.614Z,15.90
2022-09-25T12:09:29.719Z,13.20
2022-09-25T12:12:06.784Z,12.20
2022-09-25T12:14:49.867Z,11.50
2022-09-25T12:17:29.095Z,11.70
2022-09-25T12:20:06.742Z,18.30
2022-09-25T12:22:48.027Z,15.90
2022-09-25T12:25:33.878Z,15.30
2022-09-25T12:28:13.269Z,14.40
2022-09-25T12:30:55.446Z,13.30
2022-09-25T12:33:35.056Z,12.60
2022-09-25T12:36:10.838Z,13.10
2022-09-25T12:38:47.533Z,14.60
2022-09-25T12:41:24.496Z,14.30
2022-09-25T12:44:01.119Z,13.80
2022-09-25T12:46:37.531Z,12.90
2022-09-25T12:49:13.667Z,12.10
2022-09-25T12:51:46.645Z,13.80
2022-09-25T12:54:27.517Z,13.70
2022-09-25T12:57:00.300Z,13.30
2022-09-25T12:59:35.469Z,13.50
2022-09-25T13:02:09.987Z,13.10
2022-09-25T13:04:56.635Z,15.30
2022-09-25T13:07:32.206Z,14.80
2022-09-25T13:10:03.562Z,14.00
2022-09-25T13:12:36.200Z,13.60
2022-09-25T13:15:10.061Z,13.90
2022-09-25T13:17:40.439Z,14.40
2022-09-25T13:20:49.940Z,13.90
2022-09-25T13:23:28.050Z,15.10
2022-09-25T13:26:00.291Z,14.90
2022-09-25T13:28:32.248Z,13.80
2022-09-25T13:31:09.113Z,14.30
2022-09-25T13:33:44.747Z,14.60
2022-09-25T13:36:41.234Z,14.70
2022-09-25T13:39:39.697Z,13.40
2022-09-25T13:42:16.005Z,13.10
2022-09-25T13:45:06.006Z,12.70
2022-09-25T13:47:54.717Z,12.50
2022-09-25T13:50:32.056Z,12.50
2022-09-25T13:53:26.375Z,12.00
2022-09-25T13:56:29.874Z,13.60
2022-09-25T13:59:07.133Z,12.60
2022-09-25T14:01:39.275Z,13.40
2022-09-25T14:04:21.295Z,13.10
2022-09-25T14:06:53.414Z,13.20
2022-09-25T14:09:24.433Z,13.30
2022-09-25T14:12:02.187Z,13.30
2022-09-25T14:14:36.638Z,13.20
2022-09-25T14:17:07.906Z,12.20
2022-09-25T14:19:42.152Z,12.90
2022-09-25T14:22:22.462Z,12.20
2022-09-25T14:24:52.616Z,11.20
2022-09-25T14:27:25.731Z,11.30
2022-09-25T14:30:04.419Z,11.50
2022-09-25T14:32:54.977Z,12.60
2022-09-25T14:35:42.451Z,12.50
2022-09-25T14:38:35.193Z,11.90
2022-09-25T14:41:22.214Z,13.20
2022-09-25T14:44:09.175Z,11.90
2022-09-25T14:46:40.978Z,12.80
2022-09-25T14:49:18.263Z,12.80
2022-09-25T14:51:54.095Z,13.80
2022-09-25T14:54:25.763Z,15.30
2022-09-25T14:56:57.237Z,13.30
2022-09-25T14:59:39.500Z,13.70
2022-09-25T15:02:16.308Z,13.50
2022-09-25T15:04:45.136Z,13.00
2022-09-25T15:07:17.657Z,12.60
2022-09-25T15:09:47.711Z,12.70
2022-09-25T15:12:20.644Z,13.20
2022-09-25T15:15:05.980Z,12.00
2022-09-25T15:17:46.135Z,12.90
2022-09-25T15:20:16.961Z,11.50
2022-09-25T15:22:50.309Z,11.80
2022-09-25T15:25:24.078Z,13.10
2022-09-25T15:27:53.478Z,12.10
2022-09-25T15:30:25.516Z,11.70
2022-09-25T15:33:00.861Z,11.90
2022-09-25T15:35:32.323Z,12.10
2022-09-25T15:38:11.888Z,11.10
2022-09-25T15:40:41.084Z,12.20
2022-09-25T15:43:13.470Z,10.70
2022-09-25T15:45:45.947Z,12.30
2022-09-25T15:48:29.370Z,12.00
2022-09-25T15:51:01.188Z,10.80
2022-09-25T15:53:32.343Z,12.30
2022-09-25T15:56:59.864Z,12.60
2022-09-25T16:00:02.034Z,11.90
2022-09-25T16:02:54.982Z,12.00
2022-09-25T16:05:30.256Z,12.80
2022-09-25T16:08:17.284Z,12.20
2022-09-25T16:10:50.079Z,11.30
2022-09-25T16:13:26.892Z,12.20
2022-09-25T16:15:56.506Z,12.00
2022-09-25T16:18:39.151Z,12.90
2022-09-25T16:21:19.257Z,13.00
2022-09-25T16:23:56.959Z,12.40
2022-09-25T16:26:35.738Z,12.30
2022-09-25T16:29:17.802Z,12.10
2022-09-25T16:31:47.277Z,14.10
2022-09-25T16:34:25.581Z,13.80
2022-09-25T16:36:57.673Z,14.90
2022-09-25T16:39:29.546Z,15.50
2022-09-25T16:42:00.543Z,20.10
2022-09-25T16:44:42.426Z,22.20
2022-09-25T16:47:19.664Z,27.90
2022-09-25T16:50:07.628Z,25.80
2022-09-25T16:52:49.837Z,22.80
2022-09-25T16:55:22.570Z,23.30
2022-09-25T16:57:53.020Z,22.30
2022-09-25T17:00:24.681Z,23.00
2022-09-25T17:03:03.758Z,19.80
2022-09-25T17:05:32.807Z,18.60
2022-09-25T17:08:11.877Z,18.50
2022-09-25T17:10:40.669Z,17.40
2022-09-25T17:13:13.332Z,17.00
2022-09-25T17:15:42.389Z,15.90
2022-09-25T17:18:17.322Z,14.60
2022-09-25T17:20:47.161Z,14.90
2022-09-25T17:23:18.087Z,16.10
2022-09-25T17:25:50.003Z,17.40
2022-09-25T17:28:18.514Z,17.10
2022-09-25T17:30:47.039Z,17.10
2022-09-25T17:33:18.336Z,23.50
2022-09-25T17:35:51.327Z,22.40
2022-09-25T17:38:20.231Z,48.50
2022-09-25T17:43:42.664Z,54.30
2022-09-25T17:46:16.044Z,48.40
2022-09-25T17:48:53.939Z,42.40
2022-09-25T17:51:31.171Z,39.20
2022-09-25T17:54:01.818Z,39.10
2022-09-25T17:56:30.480Z,37.00
2022-09-25T17:59:00.008Z,40.20
2022-09-25T18:01:34.079Z,43.30
2022-09-25T18:04:18.215Z,34.20
2022-09-25T18:06:46.825Z,32.20
2022-09-25T18:09:15.783Z,33.40
2022-09-25T18:11:44.609Z,30.90
2022-09-25T18:14:14.986Z,24.80
2022-09-25T18:16:45.208Z,23.10
2022-09-25T18:19:37.799Z,19.40
2022-09-25T18:22:20.845Z,18.10
2022-09-25T18:24:54.036Z,18.80
2022-09-25T18:27:24.550Z,18.30
2022-09-25T18:29:53.530Z,17.60
2022-09-25T18:32:23.431Z,17.50
2022-09-25T18:34:51.975Z,17.30
2022-09-25T18:37:20.537Z,17.30
2022-09-25T18:39:50.225Z,17.30
2022-09-25T18:42:19.708Z,17.00
2022-09-25T18:44:48.521Z,18.60
2022-09-25T18:47:26.832Z,19.30
2022-09-25T18:50:24.106Z,19.30
2022-09-25T18:53:03.251Z,21.90
2022-09-25T18:56:41.841Z,20.30
2022-09-25T18:59:22.787Z,21.20
2022-09-25T19:02:16.214Z,21.60
2022-09-25T19:04:45.128Z,23.30
2022-09-25T19:07:13.828Z,22.70
2022-09-25T19:09:42.582Z,23.50
2022-09-25T19:12:16.595Z,24.10
2022-09-25T19:14:46.230Z,23.50
2022-09-25T19:17:15.561Z,25.20
2022-09-25T19:19:44.430Z,22.40
2022-09-25T19:22:17.231Z,23.90
2022-09-25T19:24:46.189Z,23.00
2022-09-25T19:27:16.286Z,21.30
2022-09-25T19:29:46.299Z,23.00
2022-09-25T19:32:17.326Z,22.50
2022-09-25T19:34:45.959Z,23.00
2022-09-25T19:37:15.007Z,22.80
2022-09-25T19:40:02.553Z,22.80
2022-09-25T19:42:33.088Z,21.70
2022-09-25T19:45:01.531Z,21.70
2022-09-25T19:47:31.271Z,21.20
2022-09-25T19:49:59.797Z,21.60
2022-09-25T19:52:28.625Z,21.80
2022-09-25T19:54:57.490Z,22.30
2022-09-25T19:57:27.097Z,24.40
2022-09-25T19:59:55.608Z,23.20
2022-09-25T20:02:24.381Z,24.10
2022-09-25T20:04:52.877Z,24.20
2022-09-25T20:07:21.389Z,25.10
2022-09-25T20:09:49.905Z,26.50
2022-09-25T20:12:18.481Z,26.60
2022-09-25T20:14:48.282Z,27.10
2022-09-25T20:17:17.175Z,27.00
2022-09-25T20:19:45.574Z,26.40
2022-09-25T20:22:14.604Z,27.00
2022-09-25T20:24:43.211Z,25.70
2022-09-25T20:27:11.677Z,25.60
2022-09-25T20:29:40.123Z,24.50
2022-09-25T20:32:09.169Z,27.00
2022-09-25T20:34:37.601Z,28.70
2022-09-25T20:37:06.016Z,26.40
2022-09-25T20:39:34.438Z,25.90
2022-09-25T20:42:02.965Z,23.00
2022-09-25T20:44:31.458Z,24.40
2022-09-25T20:46:59.871Z,20.90
2022-09-25T20:49:28.257Z,21.00
2022-09-25T20:51:56.674Z,20.60
2022-09-25T20:54:25.304Z,19.60
2022-09-25T20:56:54.027Z,19.40
2022-09-25T20:59:22.774Z,20.70
2022-09-25T21:01:51.812Z,22.30
2022-09-25T21:04:20.381Z,22.50
2022-09-25T21:06:49.456Z,22.70
2022-09-25T21:09:20.755Z,24.70
2022-09-25T21:11:49.791Z,23.90
2022-09-25T21:14:20.699Z,23.80
2022-09-25T21:16:50.607Z,23.20
2022-09-25T21:19:20.961Z,22.40
2022-09-25T21:21:49.966Z,21.60
2022-09-25T21:24:20.658Z,21.20
2022-09-25T21:26:50.584Z,20.20
2022-09-25T21:29:20.509Z,21.90
2022-09-25T21:31:50.861Z,20.40
2022-09-25T21:34:21.217Z,21.40
2022-09-25T21:36:49.689Z,21.50
2022-09-25T21:39:21.002Z,21.80
2022-09-25T21:41:52.756Z,21.90
2022-09-25T21:44:24.145Z,22.30
2022-09-25T21:46:52.596Z,22.80
2022-09-25T21:49:22.658Z,23.70
2022-09-25T21:51:51.753Z,23.90
2022-09-25T21:54:21.621Z,24.70
2022-09-25T21:56:50.067Z,25.50
2022-09-25T21:59:19.112Z,26.40
2022-09-25T22:01:48.476Z,27.50
2022-09-25T22:04:16.995Z,26.00
2022-09-25T22:06:46.992Z,26.00
2022-09-25T22:09:18.643Z,26.60
2022-09-25T22:11:48.483Z,25.20
2022-09-25T22:14:17.081Z,25.30
2022-09-25T22:16:47.293Z,25.60
2022-09-25T22:19:19.356Z,25.20
2022-09-25T22:21:49.471Z,24.20
2022-09-25T22:24:18.201Z,25.80
2022-09-25T22:26:48.868Z,26.00
2022-09-25T22:29:19.977Z,26.90
2022-09-25T22:31:49.274Z,29.40
2022-09-25T22:34:21.728Z,29.60
2022-09-25T22:36:56.237Z,29.20
2022-09-25T22:39:29.015Z,28.00
2022-09-25T22:41:58.568Z,28.20
2022-09-25T22:44:27.335Z,28.50
2022-09-25T22:46:57.166Z,29.20
2022-09-25T22:49:26.076Z,28.80
2022-09-25T22:51:54.849Z,28.70
2022-09-25T22:54:23.649Z,30.20
2022-09-25T22:56:53.356Z,28.70
2022-09-25T22:59:21.804Z,27.40
2022-09-25T23:01:52.840Z,28.00
2022-09-25T23:04:23.969Z,27.80
2022-09-25T23:06:53.078Z,28.70
2022-09-25T23:09:25.205Z,30.00
2022-09-25T23:11:55.015Z,30.40
2022-09-25T23:14:28.400Z,29.00
2022-09-25T23:16:57.246Z,27.60
2022-09-25T23:19:26.058Z,30.20
2022-09-25T23:21:55.505Z,29.60
2022-09-25T23:24:24.526Z,28.90
2022-09-25T23:26:53.568Z,29.90
2022-09-25T23:29:22.565Z,30.30
2022-09-25T23:31:51.719Z,30.40
2022-09-25T23:34:20.637Z,30.30
2022-09-25T23:36:49.059Z,32.80
2022-09-25T23:39:19.453Z,30.50
2022-09-25T23:41:48.669Z,31.20
2022-09-25T23:44:17.323Z,31.90
2022-09-25T23:46:45.874Z,30.80
2022-09-25T23:49:15.251Z,32.50
2022-09-25T23:51:45.613Z,30.40
2022-09-25T23:54:14.260Z,30.10
2022-09-25T23:56:43.085Z,30.00
2022-09-25T23:59:14.691Z,30.70
